sensor_id;sensor_type;location;lat;lon;timestamp;P1;durP1;ratioP1;P2;durP2;ratioP2
62724;SDS011;49026;52.600;4.694;2022-09-09T00:01:26;8.02;;;3.50;;
62724;SDS011;49026;52.600;4.694;2022-09-09T00:09:45;7.47;;;3.60;;
62724;SDS011;49026;52.600;4.694;2022-09-09T00:12:18;9.93;;;3.10;;
62724;SDS011;49026;52.600;4.694;2022-09-09T00:15:02;5.68;;;3.10;;
62724;SDS011;49026;52.600;4.694;2022-09-09T00:17:38;6.50;;;3.42;;
62724;SDS011;49026;52.600;4.694;2022-09-09T00:20:16;7.70;;;3.38;;
62724;SDS011;49026;52.600;4.694;2022-09-09T00:22:49;5.15;;;3.30;;
62724;SDS011;49026;52.600;4.694;2022-09-09T00:25:27;10.80;;;4.25;;
62724;SDS011;49026;52.600;4.694;2022-09-09T00:27:56;7.72;;;3.60;;
62724;SDS011;49026;52.600;4.694;2022-09-09T00:30:23;7.85;;;4.07;;
62724;SDS011;49026;52.600;4.694;2022-09-09T00:32:54;6.82;;;3.60;;
62724;SDS011;49026;52.600;4.694;2022-09-09T00:35:29;10.52;;;3.83;;
62724;SDS011;49026;52.600;4.694;2022-09-09T00:38:10;8.55;;;3.83;;
62724;SDS011;49026;52.600;4.694;2022-09-09T00:40:45;12.45;;;4.50;;
62724;SDS011;49026;52.600;4.694;2022-09-09T00:43:26;10.90;;;4.22;;
62724;SDS011;49026;52.600;4.694;2022-09-09T00:48:46;9.82;;;4.55;;
62724;SDS011;49026;52.600;4.694;2022-09-09T00:51:50;6.90;;;4.15;;
62724;SDS011;49026;52.600;4.694;2022-09-09T00:54:45;6.95;;;3.53;;
62724;SDS011;49026;52.600;4.694;2022-09-09T00:57:33;10.57;;;4.47;;
62724;SDS011;49026;52.600;4.694;2022-09-09T01:11:24;10.50;;;4.82;;
62724;SDS011;49026;52.600;4.694;2022-09-09T01:14:11;11.00;;;5.03;;
62724;SDS011;49026;52.600;4.694;2022-09-09T01:16:45;10.77;;;4.90;;
62724;SDS011;49026;52.600;4.694;2022-09-09T01:19:14;11.68;;;5.78;;
62724;SDS011;49026;52.600;4.694;2022-09-09T01:22:03;9.80;;;5.22;;
62724;SDS011;49026;52.600;4.694;2022-09-09T01:27:37;12.20;;;5.65;;
62724;SDS011;49026;52.600;4.694;2022-09-09T01:30:10;11.97;;;5.70;;
62724;SDS011;49026;52.600;4.694;2022-09-09T01:32:48;10.32;;;4.80;;
62724;SDS011;49026;52.600;4.694;2022-09-09T01:37:52;9.55;;;4.85;;
62724;SDS011;49026;52.600;4.694;2022-09-09T01:40:20;11.50;;;5.72;;
62724;SDS011;49026;52.600;4.694;2022-09-09T01:42:49;13.75;;;6.13;;
62724;SDS011;49026;52.600;4.694;2022-09-09T01:45:14;13.18;;;6.40;;
62724;SDS011;49026;52.600;4.694;2022-09-09T01:47:42;13.20;;;6.38;;
62724;SDS011;49026;52.600;4.694;2022-09-09T01:50:10;21.80;;;5.97;;
62724;SDS011;49026;52.600;4.694;2022-09-09T01:52:37;13.23;;;6.43;;
62724;SDS011;49026;52.600;4.694;2022-09-09T01:55:03;11.60;;;6.70;;
62724;SDS011;49026;52.600;4.694;2022-09-09T01:57:33;16.35;;;5.95;;
62724;SDS011;49026;52.600;4.694;2022-09-09T02:00:07;15.00;;;5.72;;
62724;SDS011;49026;52.600;4.694;2022-09-09T02:05:45;18.60;;;6.78;;
62724;SDS011;49026;52.600;4.694;2022-09-09T02:08:23;10.80;;;6.35;;
62724;SDS011;49026;52.600;4.694;2022-09-09T02:11:20;11.00;;;6.40;;
62724;SDS011;49026;52.600;4.694;2022-09-09T02:13:48;12.02;;;6.07;;
62724;SDS011;49026;52.600;4.694;2022-09-09T02:16:30;19.48;;;7.72;;
62724;SDS011;49026;52.600;4.694;2022-09-09T02:19:12;13.13;;;8.20;;
62724;SDS011;49026;52.600;4.694;2022-09-09T02:21:52;17.20;;;8.02;;
62724;SDS011;49026;52.600;4.694;2022-09-09T02:24:20;10.40;;;7.32;;
62724;SDS011;49026;52.600;4.694;2022-09-09T02:26:49;15.10;;;8.60;;
62724;SDS011;49026;52.600;4.694;2022-09-09T02:29:21;12.52;;;8.07;;
62724;SDS011;49026;52.600;4.694;2022-09-09T02:31:51;12.65;;;8.02;;
62724;SDS011;49026;52.600;4.694;2022-09-09T02:34:20;15.38;;;7.90;;
62724;SDS011;49026;52.600;4.694;2022-09-09T02:36:49;22.65;;;10.30;;
62724;SDS011;49026;52.600;4.694;2022-09-09T02:39:18;15.02;;;8.75;;
62724;SDS011;49026;52.600;4.694;2022-09-09T02:41:45;20.02;;;10.50;;
62724;SDS011;49026;52.600;4.694;2022-09-09T02:44:14;15.40;;;9.35;;
62724;SDS011;49026;52.600;4.694;2022-09-09T02:46:57;17.38;;;10.93;;
62724;SDS011;49026;52.600;4.694;2022-09-09T02:50:03;14.80;;;9.27;;
62724;SDS011;49026;52.600;4.694;2022-09-09T02:55:05;16.98;;;9.82;;
62724;SDS011;49026;52.600;4.694;2022-09-09T02:57:39;14.90;;;9.02;;
62724;SDS011;49026;52.600;4.694;2022-09-09T03:00:08;24.00;;;11.50;;
62724;SDS011;49026;52.600;4.694;2022-09-09T03:02:36;18.10;;;11.15;;
62724;SDS011;49026;52.600;4.694;2022-09-09T03:05:03;21.75;;;13.07;;
62724;SDS011;49026;52.600;4.694;2022-09-09T03:07:33;18.58;;;10.85;;
62724;SDS011;49026;52.600;4.694;2022-09-09T03:09:59;20.90;;;11.95;;
62724;SDS011;49026;52.600;4.694;2022-09-09T03:12:24;15.35;;;10.88;;
62724;SDS011;49026;52.600;4.694;2022-09-09T03:14:49;20.33;;;11.95;;
62724;SDS011;49026;52.600;4.694;2022-09-09T03:17:14;20.85;;;13.07;;
62724;SDS011;49026;52.600;4.694;2022-09-09T03:19:42;24.02;;;11.85;;
62724;SDS011;49026;52.600;4.694;2022-09-09T03:22:09;30.50;;;10.95;;
62724;SDS011;49026;52.600;4.694;2022-09-09T03:24:36;20.63;;;11.63;;
62724;SDS011;49026;52.600;4.694;2022-09-09T03:27:01;20.58;;;11.80;;
62724;SDS011;49026;52.600;4.694;2022-09-09T03:29:26;21.60;;;12.35;;
62724;SDS011;49026;52.600;4.694;2022-09-09T03:31:52;20.95;;;11.63;;
62724;SDS011;49026;52.600;4.694;2022-09-09T03:34:17;22.92;;;11.20;;
62724;SDS011;49026;52.600;4.694;2022-09-09T03:36:42;15.57;;;10.75;;
62724;SDS011;49026;52.600;4.694;2022-09-09T03:39:07;19.98;;;12.43;;
62724;SDS011;49026;52.600;4.694;2022-09-09T03:41:33;19.10;;;11.75;;
62724;SDS011;49026;52.600;4.694;2022-09-09T03:43:59;17.15;;;11.20;;
62724;SDS011;49026;52.600;4.694;2022-09-09T03:46:24;18.85;;;11.02;;
62724;SDS011;49026;52.600;4.694;2022-09-09T03:48:50;18.30;;;12.20;;
62724;SDS011;49026;52.600;4.694;2022-09-09T03:51:19;15.13;;;10.32;;
62724;SDS011;49026;52.600;4.694;2022-09-09T03:53:45;16.30;;;11.43;;
62724;SDS011;49026;52.600;4.694;2022-09-09T03:56:10;18.67;;;10.57;;
62724;SDS011;49026;52.600;4.694;2022-09-09T03:58:36;16.80;;;9.35;;
62724;SDS011;49026;52.600;4.694;2022-09-09T04:01:11;17.50;;;10.95;;
62724;SDS011;49026;52.600;4.694;2022-09-09T04:03:41;13.30;;;8.15;;
62724;SDS011;49026;52.600;4.694;2022-09-09T04:06:12;20.58;;;9.68;;
62724;SDS011;49026;52.600;4.694;2022-09-09T04:08:39;13.65;;;8.68;;
62724;SDS011;49026;52.600;4.694;2022-09-09T04:11:05;10.88;;;7.95;;
62724;SDS011;49026;52.600;4.694;2022-09-09T04:13:33;10.80;;;8.13;;
62724;SDS011;49026;52.600;4.694;2022-09-09T04:16:00;14.30;;;9.40;;
62724;SDS011;49026;52.600;4.694;2022-09-09T04:18:27;14.15;;;7.25;;
62724;SDS011;49026;52.600;4.694;2022-09-09T04:20:53;14.40;;;8.38;;
62724;SDS011;49026;52.600;4.694;2022-09-09T04:23:24;8.95;;;5.35;;
62724;SDS011;49026;52.600;4.694;2022-09-09T04:25:53;15.23;;;7.63;;
62724;SDS011;49026;52.600;4.694;2022-09-09T04:28:20;12.65;;;6.07;;
62724;SDS011;49026;52.600;4.694;2022-09-09T04:30:47;10.70;;;6.63;;
62724;SDS011;49026;52.600;4.694;2022-09-09T04:33:13;11.52;;;7.13;;
62724;SDS011;49026;52.600;4.694;2022-09-09T04:35:45;12.60;;;7.35;;
62724;SDS011;49026;52.600;4.694;2022-09-09T04:38:15;6.43;;;3.72;;
62724;SDS011;49026;52.600;4.694;2022-09-09T04:40:50;11.52;;;7.93;;
62724;SDS011;49026;52.600;4.694;2022-09-09T04:43:17;8.23;;;4.38;;
62724;SDS011;49026;52.600;4.694;2022-09-09T04:45:44;12.38;;;6.88;;
62724;SDS011;49026;52.600;4.694;2022-09-09T04:48:12;16.83;;;6.85;;
62724;SDS011;49026;52.600;4.694;2022-09-09T04:50:38;16.50;;;6.65;;
62724;SDS011;49026;52.600;4.694;2022-09-09T04:53:05;13.23;;;6.90;;
62724;SDS011;49026;52.600;4.694;2022-09-09T04:55:33;10.40;;;6.60;;
62724;SDS011;49026;52.600;4.694;2022-09-09T04:58:03;9.90;;;5.80;;
62724;SDS011;49026;52.600;4.694;2022-09-09T05:00:30;15.65;;;7.60;;
62724;SDS011;49026;52.600;4.694;2022-09-09T05:02:58;11.10;;;6.97;;
62724;SDS011;49026;52.600;4.694;2022-09-09T05:05:28;8.50;;;3.70;;
62724;SDS011;49026;52.600;4.694;2022-09-09T05:07:54;13.82;;;5.90;;
62724;SDS011;49026;52.600;4.694;2022-09-09T05:10:19;11.55;;;6.93;;
62724;SDS011;49026;52.600;4.694;2022-09-09T05:12:51;14.23;;;6.43;;
62724;SDS011;49026;52.600;4.694;2022-09-09T05:15:18;13.10;;;5.55;;
62724;SDS011;49026;52.600;4.694;2022-09-09T05:17:43;15.40;;;6.85;;
62724;SDS011;49026;52.600;4.694;2022-09-09T05:20:09;9.75;;;6.20;;
62724;SDS011;49026;52.600;4.694;2022-09-09T05:22:36;18.95;;;7.22;;
62724;SDS011;49026;52.600;4.694;2022-09-09T05:25:02;11.05;;;6.07;;
62724;SDS011;49026;52.600;4.694;2022-09-09T05:27:28;9.57;;;5.47;;
62724;SDS011;49026;52.600;4.694;2022-09-09T05:29:56;8.75;;;6.25;;
62724;SDS011;49026;52.600;4.694;2022-09-09T05:32:22;14.20;;;6.40;;
62724;SDS011;49026;52.600;4.694;2022-09-09T05:34:47;10.43;;;5.72;;
62724;SDS011;49026;52.600;4.694;2022-09-09T05:37:13;12.75;;;6.38;;
62724;SDS011;49026;52.600;4.694;2022-09-09T05:39:41;14.25;;;6.45;;
62724;SDS011;49026;52.600;4.694;2022-09-09T05:42:08;11.15;;;5.18;;
62724;SDS011;49026;52.600;4.694;2022-09-09T05:44:33;10.65;;;4.72;;
62724;SDS011;49026;52.600;4.694;2022-09-09T05:46:59;9.27;;;3.42;;
62724;SDS011;49026;52.600;4.694;2022-09-09T05:49:24;13.32;;;6.10;;
62724;SDS011;49026;52.600;4.694;2022-09-09T05:51:50;14.07;;;5.80;;
62724;SDS011;49026;52.600;4.694;2022-09-09T05:54:17;7.75;;;4.07;;
62724;SDS011;49026;52.600;4.694;2022-09-09T05:56:45;8.00;;;4.07;;
62724;SDS011;49026;52.600;4.694;2022-09-09T05:59:11;9.90;;;4.20;;
62724;SDS011;49026;52.600;4.694;2022-09-09T06:01:38;11.40;;;3.92;;
62724;SDS011;49026;52.600;4.694;2022-09-09T06:04:07;7.63;;;3.28;;
62724;SDS011;49026;52.600;4.694;2022-09-09T06:06:36;11.55;;;4.35;;
62724;SDS011;49026;52.600;4.694;2022-09-09T06:09:04;11.18;;;3.33;;
62724;SDS011;49026;52.600;4.694;2022-09-09T06:11:37;8.20;;;3.33;;
62724;SDS011;49026;52.600;4.694;2022-09-09T06:14:04;6.85;;;3.10;;
62724;SDS011;49026;52.600;4.694;2022-09-09T06:16:30;7.15;;;3.53;;
62724;SDS011;49026;52.600;4.694;2022-09-09T06:18:59;7.00;;;3.20;;
62724;SDS011;49026;52.600;4.694;2022-09-09T06:23:53;11.88;;;3.63;;
62724;SDS011;49026;52.600;4.694;2022-09-09T06:28:45;8.98;;;3.25;;
62724;SDS011;49026;52.600;4.694;2022-09-09T06:31:13;4.90;;;2.28;;
62724;SDS011;49026;52.600;4.694;2022-09-09T06:33:41;9.27;;;2.92;;
62724;SDS011;49026;52.600;4.694;2022-09-09T06:36:07;4.78;;;2.05;;
62724;SDS011;49026;52.600;4.694;2022-09-09T06:38:36;6.53;;;1.77;;
62724;SDS011;49026;52.600;4.694;2022-09-09T06:41:02;6.43;;;2.78;;
62724;SDS011;49026;52.600;4.694;2022-09-09T06:43:27;3.85;;;1.92;;
62724;SDS011;49026;52.600;4.694;2022-09-09T06:45:57;4.30;;;1.90;;
62724;SDS011;49026;52.600;4.694;2022-09-09T06:48:23;5.32;;;2.22;;
62724;SDS011;49026;52.600;4.694;2022-09-09T06:50:51;10.80;;;3.45;;
62724;SDS011;49026;52.600;4.694;2022-09-09T06:53:25;6.78;;;3.08;;
62724;SDS011;49026;52.600;4.694;2022-09-09T06:55:51;10.43;;;3.17;;
62724;SDS011;49026;52.600;4.694;2022-09-09T06:58:16;9.13;;;3.53;;
62724;SDS011;49026;52.600;4.694;2022-09-09T07:00:41;7.78;;;2.83;;
62724;SDS011;49026;52.600;4.694;2022-09-09T07:03:07;11.02;;;2.83;;
62724;SDS011;49026;52.600;4.694;2022-09-09T07:05:34;11.95;;;3.22;;
62724;SDS011;49026;52.600;4.694;2022-09-09T07:07:59;6.70;;;2.63;;
62724;SDS011;49026;52.600;4.694;2022-09-09T07:10:24;8.40;;;2.78;;
62724;SDS011;49026;52.600;4.694;2022-09-09T07:12:51;7.05;;;2.90;;
62724;SDS011;49026;52.600;4.694;2022-09-09T07:17:48;6.88;;;2.83;;
62724;SDS011;49026;52.600;4.694;2022-09-09T07:20:13;13.32;;;4.25;;
62724;SDS011;49026;52.600;4.694;2022-09-09T07:22:40;9.85;;;4.00;;
62724;SDS011;49026;52.600;4.694;2022-09-09T07:25:05;11.18;;;3.92;;
62724;SDS011;49026;52.600;4.694;2022-09-09T07:27:35;7.70;;;3.65;;
62724;SDS011;49026;52.600;4.694;2022-09-09T07:30:01;9.73;;;4.28;;
62724;SDS011;49026;52.600;4.694;2022-09-09T07:32:27;9.82;;;3.83;;
62724;SDS011;49026;52.600;4.694;2022-09-09T07:34:52;6.45;;;3.00;;
62724;SDS011;49026;52.600;4.694;2022-09-09T07:37:20;7.30;;;3.10;;
62724;SDS011;49026;52.600;4.694;2022-09-09T07:39:45;9.50;;;3.78;;
62724;SDS011;49026;52.600;4.694;2022-09-09T07:42:12;6.47;;;3.28;;
62724;SDS011;49026;52.600;4.694;2022-09-09T07:44:40;9.90;;;3.70;;
62724;SDS011;49026;52.600;4.694;2022-09-09T07:47:06;5.57;;;2.78;;
62724;SDS011;49026;52.600;4.694;2022-09-09T07:49:31;9.93;;;2.67;;
62724;SDS011;49026;52.600;4.694;2022-09-09T07:51:57;11.20;;;3.80;;
62724;SDS011;49026;52.600;4.694;2022-09-09T07:54:23;8.70;;;2.90;;
62724;SDS011;49026;52.600;4.694;2022-09-09T07:56:48;8.23;;;3.10;;
62724;SDS011;49026;52.600;4.694;2022-09-09T07:59:14;8.43;;;3.47;;
62724;SDS011;49026;52.600;4.694;2022-09-09T08:01:41;10.63;;;3.78;;
62724;SDS011;49026;52.600;4.694;2022-09-09T08:04:12;12.88;;;4.03;;
62724;SDS011;49026;52.600;4.694;2022-09-09T08:06:42;8.55;;;3.72;;
62724;SDS011;49026;52.600;4.694;2022-09-09T08:09:20;7.97;;;3.35;;
62724;SDS011;49026;52.600;4.694;2022-09-09T08:11:46;9.38;;;4.13;;
62724;SDS011;49026;52.600;4.694;2022-09-09T08:14:12;10.02;;;3.50;;
62724;SDS011;49026;52.600;4.694;2022-09-09T08:16:39;8.00;;;3.78;;
62724;SDS011;49026;52.600;4.694;2022-09-09T08:21:35;7.38;;;3.15;;
62724;SDS011;49026;52.600;4.694;2022-09-09T08:24:04;6.68;;;2.30;;
62724;SDS011;49026;52.600;4.694;2022-09-09T08:26:33;8.95;;;3.30;;
62724;SDS011;49026;52.600;4.694;2022-09-09T08:29:00;8.55;;;2.97;;
62724;SDS011;49026;52.600;4.694;2022-09-09T08:31:31;7.95;;;2.85;;
62724;SDS011;49026;52.600;4.694;2022-09-09T08:34:07;12.07;;;3.60;;
62724;SDS011;49026;52.600;4.694;2022-09-09T08:36:34;10.10;;;3.90;;
62724;SDS011;49026;52.600;4.694;2022-09-09T08:39:03;8.20;;;3.20;;
62724;SDS011;49026;52.600;4.694;2022-09-09T08:44:45;10.25;;;3.28;;
62724;SDS011;49026;52.600;4.694;2022-09-09T08:50:22;10.70;;;3.63;;
62724;SDS011;49026;52.600;4.694;2022-09-09T08:52:59;11.13;;;3.17;;
62724;SDS011;49026;52.600;4.694;2022-09-09T09:06:33;10.68;;;3.17;;
62724;SDS011;49026;52.600;4.694;2022-09-09T09:09:24;7.53;;;2.50;;
62724;SDS011;49026;52.600;4.694;2022-09-09T09:11:57;6.93;;;2.60;;
62724;SDS011;49026;52.600;4.694;2022-09-09T09:14:26;13.38;;;3.50;;
62724;SDS011;49026;52.600;4.694;2022-09-09T09:19:24;11.00;;;3.38;;
62724;SDS011;49026;52.600;4.694;2022-09-09T09:22:01;10.70;;;3.70;;
62724;SDS011;49026;52.600;4.694;2022-09-09T09:29:57;9.40;;;2.58;;
62724;SDS011;49026;52.600;4.694;2022-09-09T09:32:24;10.73;;;2.50;;
62724;SDS011;49026;52.600;4.694;2022-09-09T09:34:56;8.98;;;2.47;;
62724;SDS011;49026;52.600;4.694;2022-09-09T09:37:29;8.52;;;2.70;;
62724;SDS011;49026;52.600;4.694;2022-09-09T09:40:07;6.75;;;2.50;;
62724;SDS011;49026;52.600;4.694;2022-09-09T09:42:34;7.88;;;2.33;;
62724;SDS011;49026;52.600;4.694;2022-09-09T09:45:14;7.35;;;2.95;;
62724;SDS011;49026;52.600;4.694;2022-09-09T09:48:03;8.05;;;2.92;;
62724;SDS011;49026;52.600;4.694;2022-09-09T09:50:33;9.10;;;3.13;;
62724;SDS011;49026;52.600;4.694;2022-09-09T09:53:00;10.13;;;2.90;;
62724;SDS011;49026;52.600;4.694;2022-09-09T09:55:32;3.33;;;2.08;;
62724;SDS011;49026;52.600;4.694;2022-09-09T09:58:00;7.35;;;3.03;;
62724;SDS011;49026;52.600;4.694;2022-09-09T10:00:30;5.32;;;2.20;;
62724;SDS011;49026;52.600;4.694;2022-09-09T10:02:55;6.28;;;2.35;;
62724;SDS011;49026;52.600;4.694;2022-09-09T10:08:03;7.00;;;2.60;;
62724;SDS011;49026;52.600;4.694;2022-09-09T10:13:34;4.68;;;2.25;;
62724;SDS011;49026;52.600;4.694;2022-09-09T10:16:25;7.70;;;2.42;;
62724;SDS011;49026;52.600;4.694;2022-09-09T10:19:04;4.28;;;2.10;;
62724;SDS011;49026;52.600;4.694;2022-09-09T10:21:41;10.68;;;2.42;;
62724;SDS011;49026;52.600;4.694;2022-09-09T10:27:05;8.73;;;2.25;;
62724;SDS011;49026;52.600;4.694;2022-09-09T10:29:49;8.00;;;1.77;;
62724;SDS011;49026;52.600;4.694;2022-09-09T10:40:36;7.22;;;2.35;;
62724;SDS011;49026;52.600;4.694;2022-09-09T10:43:13;7.53;;;2.28;;
62724;SDS011;49026;52.600;4.694;2022-09-09T10:46:11;8.98;;;2.45;;
62724;SDS011;49026;52.600;4.694;2022-09-09T10:54:13;5.95;;;2.25;;
62724;SDS011;49026;52.600;4.694;2022-09-09T11:00:01;4.10;;;1.83;;
62724;SDS011;49026;52.600;4.694;2022-09-09T11:02:40;5.53;;;1.67;;
62724;SDS011;49026;52.600;4.694;2022-09-09T11:05:16;4.82;;;1.98;;
62724;SDS011;49026;52.600;4.694;2022-09-09T11:08:02;3.38;;;1.42;;
62724;SDS011;49026;52.600;4.694;2022-09-09T11:10:36;8.75;;;2.30;;
62724;SDS011;49026;52.600;4.694;2022-09-09T11:13:09;6.53;;;1.60;;
62724;SDS011;49026;52.600;4.694;2022-09-09T11:15:43;5.82;;;2.13;;
62724;SDS011;49026;52.600;4.694;2022-09-09T11:18:19;5.82;;;2.50;;
62724;SDS011;49026;52.600;4.694;2022-09-09T11:20:50;7.95;;;2.03;;
62724;SDS011;49026;52.600;4.694;2022-09-09T11:23:22;7.55;;;2.85;;
62724;SDS011;49026;52.600;4.694;2022-09-09T11:26:02;3.58;;;1.83;;
62724;SDS011;49026;52.600;4.694;2022-09-09T11:37:04;5.18;;;1.63;;
62724;SDS011;49026;52.600;4.694;2022-09-09T11:40:22;6.15;;;1.73;;
62724;SDS011;49026;52.600;4.694;2022-09-09T11:42:34;7.05;;;1.90;;
62724;SDS011;49026;52.600;4.694;2022-09-09T11:45:10;3.67;;;1.30;;
62724;SDS011;49026;52.600;4.694;2022-09-09T11:47:51;7.22;;;1.50;;
62724;SDS011;49026;52.600;4.694;2022-09-09T11:52:47;7.47;;;1.92;;
62724;SDS011;49026;52.600;4.694;2022-09-09T11:58:01;7.57;;;2.67;;
62724;SDS011;49026;52.600;4.694;2022-09-09T12:00:48;9.25;;;2.70;;
62724;SDS011;49026;52.600;4.694;2022-09-09T12:03:34;8.07;;;3.00;;
62724;SDS011;49026;52.600;4.694;2022-09-09T12:06:09;6.45;;;2.85;;
62724;SDS011;49026;52.600;4.694;2022-09-09T12:08:41;7.13;;;3.40;;
62724;SDS011;49026;52.600;4.694;2022-09-09T12:11:10;9.57;;;3.08;;
62724;SDS011;49026;52.600;4.694;2022-09-09T12:13:36;8.63;;;2.90;;
62724;SDS011;49026;52.600;4.694;2022-09-09T12:16:01;9.10;;;2.90;;
62724;SDS011;49026;52.600;4.694;2022-09-09T12:18:37;9.02;;;2.35;;
62724;SDS011;49026;52.600;4.694;2022-09-09T12:21:08;6.40;;;1.55;;
62724;SDS011;49026;52.600;4.694;2022-09-09T12:23:47;8.73;;;2.35;;
62724;SDS011;49026;52.600;4.694;2022-09-09T12:26:22;7.13;;;2.05;;
62724;SDS011;49026;52.600;4.694;2022-09-09T12:32:07;6.43;;;1.90;;
62724;SDS011;49026;52.600;4.694;2022-09-09T12:34:40;4.10;;;1.80;;
62724;SDS011;49026;52.600;4.694;2022-09-09T12:42:53;5.97;;;1.75;;
62724;SDS011;49026;52.600;4.694;2022-09-09T12:45:21;3.95;;;1.70;;
62724;SDS011;49026;52.600;4.694;2022-09-09T12:47:56;5.95;;;2.08;;
62724;SDS011;49026;52.600;4.694;2022-09-09T12:50:29;3.10;;;1.45;;
62724;SDS011;49026;52.600;4.694;2022-09-09T12:53:31;6.03;;;1.67;;
62724;SDS011;49026;52.600;4.694;2022-09-09T12:56:04;6.00;;;2.03;;
62724;SDS011;49026;52.600;4.694;2022-09-09T12:58:35;5.43;;;1.88;;
62724;SDS011;49026;52.600;4.694;2022-09-09T13:01:03;2.80;;;1.52;;
62724;SDS011;49026;52.600;4.694;2022-09-09T13:03:30;3.10;;;1.02;;
62724;SDS011;49026;52.600;4.694;2022-09-09T13:06:10;6.72;;;1.48;;
62724;SDS011;49026;52.600;4.694;2022-09-09T13:08:44;5.28;;;1.23;;
62724;SDS011;49026;52.600;4.694;2022-09-09T13:11:16;6.70;;;1.00;;
62724;SDS011;49026;52.600;4.694;2022-09-09T13:13:50;5.22;;;1.20;;
62724;SDS011;49026;52.600;4.694;2022-09-09T13:16:32;4.18;;;1.65;;
62724;SDS011;49026;52.600;4.694;2022-09-09T13:19:09;3.15;;;0.95;;
62724;SDS011;49026;52.600;4.694;2022-09-09T13:21:40;4.75;;;1.73;;
62724;SDS011;49026;52.600;4.694;2022-09-09T13:24:06;3.38;;;1.23;;
62724;SDS011;49026;52.600;4.694;2022-09-09T13:26:56;2.75;;;1.20;;
62724;SDS011;49026;52.600;4.694;2022-09-09T13:29:30;4.53;;;1.52;;
62724;SDS011;49026;52.600;4.694;2022-09-09T13:34:58;5.55;;;1.27;;
62724;SDS011;49026;52.600;4.694;2022-09-09T13:39:56;5.38;;;1.42;;
62724;SDS011;49026;52.600;4.694;2022-09-09T13:42:28;6.25;;;1.60;;
62724;SDS011;49026;52.600;4.694;2022-09-09T13:44:56;4.68;;;1.45;;
62724;SDS011;49026;52.600;4.694;2022-09-09T13:47:27;3.13;;;1.33;;
62724;SDS011;49026;52.600;4.694;2022-09-09T13:50:09;2.88;;;1.33;;
62724;SDS011;49026;52.600;4.694;2022-09-09T13:52:54;4.32;;;1.20;;
62724;SDS011;49026;52.600;4.694;2022-09-09T13:55:24;4.13;;;1.40;;
62724;SDS011;49026;52.600;4.694;2022-09-09T13:57:59;2.13;;;1.40;;
62724;SDS011;49026;52.600;4.694;2022-09-09T14:00:27;4.05;;;1.40;;
62724;SDS011;49026;52.600;4.694;2022-09-09T14:02:56;4.45;;;1.80;;
62724;SDS011;49026;52.600;4.694;2022-09-09T14:05:22;5.50;;;1.88;;
62724;SDS011;49026;52.600;4.694;2022-09-09T14:07:49;2.17;;;1.25;;
62724;SDS011;49026;52.600;4.694;2022-09-09T14:10:15;3.55;;;1.70;;
62724;SDS011;49026;52.600;4.694;2022-09-09T14:12:40;4.82;;;2.08;;
62724;SDS011;49026;52.600;4.694;2022-09-09T14:15:09;5.93;;;2.25;;
62724;SDS011;49026;52.600;4.694;2022-09-09T14:17:37;4.95;;;2.00;;
62724;SDS011;49026;52.600;4.694;2022-09-09T14:20:04;4.47;;;2.63;;
62724;SDS011;49026;52.600;4.694;2022-09-09T14:22:39;4.82;;;2.40;;
62724;SDS011;49026;52.600;4.694;2022-09-09T14:25:04;9.77;;;2.78;;
62724;SDS011;49026;52.600;4.694;2022-09-09T14:27:31;6.47;;;2.38;;
62724;SDS011;49026;52.600;4.694;2022-09-09T14:29:57;3.42;;;1.88;;
62724;SDS011;49026;52.600;4.694;2022-09-09T14:32:23;6.15;;;2.10;;
62724;SDS011;49026;52.600;4.694;2022-09-09T14:34:48;6.45;;;1.88;;
62724;SDS011;49026;52.600;4.694;2022-09-09T14:37:17;4.22;;;1.80;;
62724;SDS011;49026;52.600;4.694;2022-09-09T14:39:43;2.22;;;1.58;;
62724;SDS011;49026;52.600;4.694;2022-09-09T14:42:09;3.40;;;1.58;;
62724;SDS011;49026;52.600;4.694;2022-09-09T14:44:36;5.47;;;1.90;;
62724;SDS011;49026;52.600;4.694;2022-09-09T14:47:03;2.30;;;1.25;;
62724;SDS011;49026;52.600;4.694;2022-09-09T14:49:32;2.03;;;0.98;;
62724;SDS011;49026;52.600;4.694;2022-09-09T14:51:58;5.43;;;1.40;;
62724;SDS011;49026;52.600;4.694;2022-09-09T14:54:24;2.63;;;1.30;;
62724;SDS011;49026;52.600;4.694;2022-09-09T14:56:49;4.20;;;1.38;;
62724;SDS011;49026;52.600;4.694;2022-09-09T14:59:14;3.40;;;1.10;;
62724;SDS011;49026;52.600;4.694;2022-09-09T15:01:39;3.47;;;1.33;;
62724;SDS011;49026;52.600;4.694;2022-09-09T15:04:05;2.53;;;1.30;;
62724;SDS011;49026;52.600;4.694;2022-09-09T15:06:32;2.65;;;1.15;;
62724;SDS011;49026;52.600;4.694;2022-09-09T15:09:02;5.45;;;1.45;;
62724;SDS011;49026;52.600;4.694;2022-09-09T15:11:28;2.47;;;1.20;;
62724;SDS011;49026;52.600;4.694;2022-09-09T15:13:55;6.75;;;1.40;;
62724;SDS011;49026;52.600;4.694;2022-09-09T15:16:23;5.28;;;1.85;;
62724;SDS011;49026;52.600;4.694;2022-09-09T15:18:51;5.05;;;1.70;;
62724;SDS011;49026;52.600;4.694;2022-09-09T15:21:20;5.18;;;1.88;;
62724;SDS011;49026;52.600;4.694;2022-09-09T15:23:47;5.00;;;1.70;;
62724;SDS011;49026;52.600;4.694;2022-09-09T15:26:17;10.40;;;1.80;;
62724;SDS011;49026;52.600;4.694;2022-09-09T15:28:45;5.72;;;1.65;;
62724;SDS011;49026;52.600;4.694;2022-09-09T15:31:16;8.15;;;1.63;;
62724;SDS011;49026;52.600;4.694;2022-09-09T15:33:47;7.22;;;2.40;;
62724;SDS011;49026;52.600;4.694;2022-09-09T15:36:26;4.70;;;1.60;;
62724;SDS011;49026;52.600;4.694;2022-09-09T15:39:01;5.13;;;1.90;;
62724;SDS011;49026;52.600;4.694;2022-09-09T15:41:29;5.53;;;1.85;;
62724;SDS011;49026;52.600;4.694;2022-09-09T15:43:56;7.55;;;1.83;;
62724;SDS011;49026;52.600;4.694;2022-09-09T15:49:12;6.72;;;2.35;;
62724;SDS011;49026;52.600;4.694;2022-09-09T15:51:40;6.85;;;2.00;;
62724;SDS011;49026;52.600;4.694;2022-09-09T15:54:07;9.48;;;2.10;;
62724;SDS011;49026;52.600;4.694;2022-09-09T15:56:33;9.63;;;2.40;;
62724;SDS011;49026;52.600;4.694;2022-09-09T15:59:02;3.85;;;1.50;;
62724;SDS011;49026;52.600;4.694;2022-09-09T16:01:28;5.75;;;1.83;;
62724;SDS011;49026;52.600;4.694;2022-09-09T16:03:55;8.13;;;2.80;;
62724;SDS011;49026;52.600;4.694;2022-09-09T16:06:22;8.68;;;2.08;;
62724;SDS011;49026;52.600;4.694;2022-09-09T16:08:50;8.27;;;2.55;;
62724;SDS011;49026;52.600;4.694;2022-09-09T16:11:18;6.75;;;2.10;;
62724;SDS011;49026;52.600;4.694;2022-09-09T16:13:48;9.90;;;1.95;;
62724;SDS011;49026;52.600;4.694;2022-09-09T16:16:16;9.50;;;2.30;;
62724;SDS011;49026;52.600;4.694;2022-09-09T16:18:48;12.77;;;2.20;;
62724;SDS011;49026;52.600;4.694;2022-09-09T16:23:44;5.32;;;2.10;;
62724;SDS011;49026;52.600;4.694;2022-09-09T16:26:13;11.25;;;1.98;;
62724;SDS011;49026;52.600;4.694;2022-09-09T16:28:39;9.55;;;2.17;;
62724;SDS011;49026;52.600;4.694;2022-09-09T16:31:09;9.52;;;2.20;;
62724;SDS011;49026;52.600;4.694;2022-09-09T16:33:38;13.57;;;2.20;;
62724;SDS011;49026;52.600;4.694;2022-09-09T16:36:05;5.50;;;1.77;;
62724;SDS011;49026;52.600;4.694;2022-09-09T16:38:31;7.35;;;1.90;;
62724;SDS011;49026;52.600;4.694;2022-09-09T16:41:01;14.68;;;2.08;;
62724;SDS011;49026;52.600;4.694;2022-09-09T16:43:27;10.90;;;2.10;;
62724;SDS011;49026;52.600;4.694;2022-09-09T16:45:54;23.83;;;3.90;;
62724;SDS011;49026;52.600;4.694;2022-09-09T16:48:20;9.27;;;2.47;;
62724;SDS011;49026;52.600;4.694;2022-09-09T16:50:45;14.48;;;2.42;;
62724;SDS011;49026;52.600;4.694;2022-09-09T16:53:13;9.68;;;2.33;;
62724;SDS011;49026;52.600;4.694;2022-09-09T16:55:40;14.48;;;2.72;;
62724;SDS011;49026;52.600;4.694;2022-09-09T16:58:06;12.95;;;2.55;;
62724;SDS011;49026;52.600;4.694;2022-09-09T17:00:33;8.52;;;2.47;;
62724;SDS011;49026;52.600;4.694;2022-09-09T17:02:59;15.00;;;4.07;;
62724;SDS011;49026;52.600;4.694;2022-09-09T17:05:24;14.52;;;2.65;;